createdAt,value
2023-03-23T21:11:54.437Z,8.90
2023-03-23T21:14:22.758Z,8.83
2023-03-23T21:16:51.143Z,6.65
2023-03-23T21:19:20.593Z,6.80
2023-03-23T21:21:55.528Z,6.60
2023-03-23T21:24:28.277Z,6.25
2023-03-23T21:26:58.080Z,7.25
2023-03-23T21:29:27.876Z,7.07
2023-03-23T21:34:28.900Z,7.30
2023-03-23T21:36:57.157Z,8.90
2023-03-23T21:39:27.286Z,7.60
2023-03-23T21:41:55.801Z,7.20
2023-03-23T21:44:24.398Z,7.13
2023-03-23T21:46:54.619Z,6.83
2023-03-23T21:49:23.240Z,5.90
2023-03-23T21:51:51.532Z,5.20
2023-03-23T21:54:21.045Z,5.85
2023-03-23T21:56:51.177Z,6.82
2023-03-23T21:59:19.421Z,6.53
2023-03-23T22:01:48.123Z,5.85
2023-03-23T22:04:17.157Z,6.00
2023-03-23T22:06:45.542Z,5.80
2023-03-23T22:09:13.834Z,6.15
2023-03-23T22:11:42.646Z,5.72
2023-03-23T22:14:12.537Z,6.57
2023-03-23T22:16:40.853Z,5.97
2023-03-23T22:19:09.437Z,5.75
2023-03-23T22:21:37.902Z,5.35
2023-03-23T22:24:06.769Z,5.35
2023-03-23T22:26:35.614Z,6.15
2023-03-23T22:29:04.976Z,6.15
2023-03-23T22:31:36.722Z,5.60
2023-03-23T22:34:04.949Z,6.03
2023-03-23T22:36:34.555Z,6.07
2023-03-23T22:39:04.338Z,6.65
2023-03-23T22:41:34.207Z,6.47
2023-03-23T22:44:02.806Z,6.63
2023-03-23T22:46:31.575Z,7.65
2023-03-23T22:49:01.341Z,7.40
2023-03-23T22:51:29.698Z,7.68
2023-03-23T22:53:57.897Z,6.75
2023-03-23T22:56:26.406Z,7.60
2023-03-23T22:58:54.812Z,8.63
2023-03-23T23:01:24.440Z,9.52
2023-03-23T23:03:52.897Z,9.90
2023-03-23T23:06:22.922Z,9.90
2023-03-23T23:08:51.869Z,11.00
2023-03-23T23:11:22.601Z,9.35
2023-03-23T23:13:51.648Z,7.03
2023-03-23T23:16:22.249Z,7.72
2023-03-23T23:18:50.625Z,9.38
2023-03-23T23:21:22.003Z,8.50
2023-03-23T23:23:52.140Z,7.32
2023-03-23T23:26:20.794Z,7.82
2023-03-23T23:28:49.886Z,7.00
2023-03-23T23:31:22.793Z,6.00
2023-03-23T23:33:51.536Z,5.88
2023-03-23T23:36:21.424Z,4.40
2023-03-23T23:38:51.684Z,4.82
2023-03-23T23:41:19.932Z,5.15
2023-03-23T23:43:48.167Z,6.15
2023-03-23T23:46:16.576Z,4.43
2023-03-23T23:48:46.614Z,5.45
2023-03-23T23:51:16.583Z,5.65
2023-03-23T23:53:46.221Z,5.47
2023-03-23T23:56:16.376Z,5.30
2023-03-23T23:58:45.906Z,5.22
